Time;durP1;ratioP1;P1;durP2;ratioP2;P2;SDS_P1;SDS_P2;PMS_P1;PMS_P2;Temp;Humidity;BMP_temperature;BMP_pressure;BME280_temperature;BME280_humidity;BME280_pressure;Samples;Min_cycle;Max_cycle;Signal;HPM_P1;HPM_P2
2022/07/18 00:01:39;;;;;;;14.07;7.03;;;;;;;;;;5037262;28;20556;-68
2022/07/18 00:04:05;;;;;;;14.43;8.10;;;;;;;;;;5037158;28;20231;-68
2022/07/18 00:06:31;;;;;;;25.37;9.90;;;;;;;;;;5054945;28;20206;-68
2022/07/18 00:08:57;;;;;;;22.67;10.93;;;;;;;;;;5055176;28;20202;-68
2022/07/18 00:11:23;;;;;;;29.60;13.10;;;;;;;;;;5055567;28;20179;-68
2022/07/18 00:13:52;;;;;;;21.33;9.23;;;;;;;;;;5055446;28;20182;-69
2022/07/18 00:16:18;;;;;;;19.63;9.63;;;;;;;;;;5037017;28;20706;-68
2022/07/18 00:18:44;;;;;;;14.33;7.10;;;;;;;;;;5055074;28;20210;-66
2022/07/18 00:21:10;;;;;;;8.27;4.90;;;;;;;;;;5055303;28;20269;-68
2022/07/18 00:23:36;;;;;;;6.73;3.50;;;;;;;;;;5037098;28;20330;-69
2022/07/18 00:26:02;;;;;;;13.10;5.43;;;;;;;;;;5055548;28;20263;-69
2022/07/18 00:28:28;;;;;;;9.17;4.60;;;;;;;;;;5055547;28;20237;-69
2022/07/18 00:30:54;;;;;;;5.30;2.93;;;;;;;;;;5055956;28;20220;-69
2022/07/18 00:33:20;;;;;;;3.67;2.20;;;;;;;;;;5037305;28;20181;-69
2022/07/18 00:35:47;;;;;;;6.00;3.30;;;;;;;;;;5055590;28;20273;-69
2022/07/18 00:38:13;;;;;;;7.17;4.63;;;;;;;;;;5055264;28;20221;-69
2022/07/18 00:40:39;;;;;;;10.27;4.57;;;;;;;;;;5055191;28;20182;-69
2022/07/18 00:43:05;;;;;;;6.50;4.17;;;;;;;;;;5036558;28;20181;-69
2022/07/18 00:45:31;;;;;;;9.20;4.20;;;;;;;;;;5054118;28;20598;-69
2022/07/18 00:47:57;;;;;;;10.73;4.43;;;;;;;;;;5054742;28;20239;-69
2022/07/18 00:50:23;;;;;;;7.97;4.40;;;;;;;;;;5054434;28;20182;-69
2022/07/18 00:52:50;;;;;;;5.67;3.80;;;;;;;;;;5054411;28;20174;-69
2022/07/18 00:55:16;;;;;;;8.57;3.90;;;;;;;;;;5054118;28;20182;-69
2022/07/18 00:57:42;;;;;;;4.87;3.30;;;;;;;;;;5036295;28;20178;-69
2022/07/18 01:02:55;;;;;;;6.73;3.17;;;;;;;;;;5054314;28;20304;-69
2022/07/18 01:05:21;;;;;;;4.50;3.40;;;;;;;;;;5053871;28;20205;-68
2022/07/18 01:07:47;;;;;;;4.10;3.17;;;;;;;;;;5054030;28;20203;-69
2022/07/18 01:10:13;;;;;;;4.23;2.60;;;;;;;;;;5035328;28;20179;-69
2022/07/18 01:12:39;;;;;;;3.40;2.83;;;;;;;;;;5053697;28;20522;-68
2022/07/18 01:15:06;;;;;;;5.97;2.90;;;;;;;;;;5053864;28;20179;-69
2022/07/18 01:17:32;;;;;;;5.77;3.10;;;;;;;;;;5035683;28;20269;-68
2022/07/18 01:19:57;;;;;;;6.63;3.17;;;;;;;;;;5053581;28;20216;-69
2022/07/18 01:22:24;;;;;;;5.33;2.80;;;;;;;;;;5053358;28;20194;-69
2022/07/18 01:24:49;;;;;;;6.60;3.03;;;;;;;;;;5035567;28;20190;-69
2022/07/18 01:27:16;;;;;;;7.60;3.10;;;;;;;;;;5035299;28;20218;-69
2022/07/18 01:29:43;;;;;;;5.03;2.67;;;;;;;;;;5053588;28;20590;-69
2022/07/18 01:32:09;;;;;;;3.90;2.40;;;;;;;;;;5035442;28;20243;-69
2022/07/18 01:34:36;;;;;;;4.83;3.23;;;;;;;;;;5035502;28;20185;-69
2022/07/18 01:37:02;;;;;;;7.27;2.90;;;;;;;;;;5053152;28;20217;-69
2022/07/18 01:39:28;;;;;;;3.70;2.50;;;;;;;;;;5035502;28;20635;-69
2022/07/18 01:41:58;;;;;;;7.00;2.73;;;;;;;;;;5053198;28;20170;-69
2022/07/18 01:44:24;;;;;;;4.90;2.70;;;;;;;;;;5053174;28;20174;-69
2022/07/18 01:46:51;;;;;;;2.00;1.80;;;;;;;;;;5053045;28;20198;-70
2022/07/18 01:49:16;;;;;;;5.30;2.60;;;;;;;;;;5052997;28;20198;-69
2022/07/18 01:51:49;;;;;;;2.90;2.60;;;;;;;;;;5053084;28;20181;-69
2022/07/18 01:54:16;;;;;;;7.33;3.47;;;;;;;;;;5053845;28;20546;-69
2022/07/18 01:56:42;;;;;;;7.40;3.57;;;;;;;;;;5053021;28;20209;-69
2022/07/18 01:59:08;;;;;;;5.57;2.87;;;;;;;;;;5035182;28;20212;-69
2022/07/18 02:01:34;;;;;;;3.53;2.50;;;;;;;;;;5052954;28;20221;-69
2022/07/18 02:04:00;;;;;;;5.20;2.97;;;;;;;;;;5053070;28;20186;-69
2022/07/18 02:06:26;;;;;;;6.53;2.80;;;;;;;;;;5035104;28;20221;-69
2022/07/18 02:08:52;;;;;;;3.83;2.47;;;;;;;;;;5035022;28;20293;-69
2022/07/18 02:11:18;;;;;;;3.53;2.60;;;;;;;;;;5052897;28;20175;-69
2022/07/18 02:13:43;;;;;;;3.03;2.40;;;;;;;;;;5035030;28;20178;-69
2022/07/18 02:16:09;;;;;;;9.33;2.37;;;;;;;;;;5053083;28;20222;-69
2022/07/18 02:18:35;;;;;;;3.50;2.60;;;;;;;;;;5035012;28;20182;-69
2022/07/18 02:21:01;;;;;;;2.60;2.20;;;;;;;;;;5052793;28;20225;-69
2022/07/18 02:23:27;;;;;;;6.43;2.47;;;;;;;;;;5056544;28;20178;-68
2022/07/18 02:25:54;;;;;;;5.33;2.93;;;;;;;;;;5056565;28;20274;-68
2022/07/18 02:28:19;;;;;;;6.97;2.87;;;;;;;;;;5056679;28;20553;-68
2022/07/18 02:30:46;;;;;;;3.97;2.57;;;;;;;;;;5038820;28;20189;-69
2022/07/18 02:33:12;;;;;;;5.90;2.67;;;;;;;;;;5038843;28;20175;-67
2022/07/18 02:35:38;;;;;;;5.40;2.67;;;;;;;;;;5056790;28;20280;-68
2022/07/18 02:38:03;;;;;;;4.17;2.50;;;;;;;;;;5038674;28;20216;-68
2022/07/18 02:40:29;;;;;;;4.80;2.83;;;;;;;;;;5057080;28;20299;-68
2022/07/18 02:42:55;;;;;;;2.90;2.60;;;;;;;;;;5038601;28;20599;-69
2022/07/18 02:45:21;;;;;;;3.63;2.57;;;;;;;;;;5038555;28;20207;-69
2022/07/18 02:47:47;;;;;;;4.07;2.73;;;;;;;;;;5056583;28;20563;-67
2022/07/18 02:50:13;;;;;;;6.67;2.90;;;;;;;;;;5038482;28;20179;-67
2022/07/18 02:52:40;;;;;;;6.20;2.67;;;;;;;;;;5056306;28;20233;-67
2022/07/18 02:55:06;;;;;;;5.20;2.73;;;;;;;;;;5056239;28;20181;-67
2022/07/18 02:57:32;;;;;;;3.27;2.47;;;;;;;;;;5056216;28;20179;-67
2022/07/18 02:59:58;;;;;;;5.40;2.80;;;;;;;;;;5056400;28;20211;-67
2022/07/18 03:02:24;;;;;;;4.87;2.77;;;;;;;;;;5056139;28;20266;-68
2022/07/18 03:04:50;;;;;;;5.33;2.70;;;;;;;;;;5038251;28;20197;-68
2022/07/18 03:07:16;;;;;;;4.87;2.80;;;;;;;;;;5055890;28;20210;-68
2022/07/18 03:09:42;;;;;;;3.83;2.30;;;;;;;;;;5056221;28;20179;-68
2022/07/18 03:12:08;;;;;;;3.90;2.80;;;;;;;;;;5038008;28;20170;-68
2022/07/18 03:14:34;;;;;;;7.43;2.87;;;;;;;;;;5056115;28;20182;-68
2022/07/18 03:17:00;;;;;;;4.80;2.73;;;;;;;;;;5037854;28;20194;-68
2022/07/18 03:19:26;;;;;;;4.57;2.43;;;;;;;;;;5055788;28;20174;-68
2022/07/18 03:21:52;;;;;;;4.20;2.70;;;;;;;;;;5037803;28;20190;-68
2022/07/18 03:24:18;;;;;;;4.97;3.03;;;;;;;;;;5056796;28;20571;-67
2022/07/18 03:26:44;;;;;;;3.10;2.73;;;;;;;;;;5037517;28;20257;-67
2022/07/18 03:29:11;;;;;;;5.43;2.70;;;;;;;;;;5055529;28;20206;-68
2022/07/18 03:31:37;;;;;;;7.30;3.10;;;;;;;;;;5055557;28;20228;-68
2022/07/18 03:34:04;;;;;;;5.23;2.97;;;;;;;;;;5037043;28;20567;-68
2022/07/18 03:36:30;;;;;;;5.87;3.00;;;;;;;;;;5055434;28;20205;-68
2022/07/18 03:38:56;;;;;;;5.80;2.57;;;;;;;;;;5055426;28;20183;-68
2022/07/18 03:41:22;;;;;;;7.93;3.20;;;;;;;;;;5037427;28;20285;-68
2022/07/18 03:43:48;;;;;;;4.83;3.03;;;;;;;;;;5055380;28;20179;-68
2022/07/18 03:46:14;;;;;;;9.00;2.80;;;;;;;;;;5037388;28;20213;-68
2022/07/18 03:48:40;;;;;;;4.30;2.70;;;;;;;;;;5055249;28;20385;-68
2022/07/18 03:51:06;;;;;;;3.50;3.03;;;;;;;;;;5055266;28;20272;-68
2022/07/18 03:53:32;;;;;;;4.47;2.90;;;;;;;;;;5055400;28;20197;-68
2022/07/18 03:55:58;;;;;;;4.47;2.47;;;;;;;;;;5055062;28;20204;-68
2022/07/18 03:58:24;;;;;;;3.57;2.97;;;;;;;;;;5037242;28;20182;-68
2022/07/18 04:00:50;;;;;;;5.67;2.97;;;;;;;;;;5037129;28;20274;-68
2022/07/18 04:03:17;;;;;;;7.87;2.83;;;;;;;;;;5055355;28;20531;-68
2022/07/18 04:05:43;;;;;;;5.77;2.77;;;;;;;;;;5054876;28;20191;-67
2022/07/18 04:08:09;;;;;;;7.50;2.80;;;;;;;;;;5054802;28;20207;-68
2022/07/18 04:10:35;;;;;;;9.00;3.00;;;;;;;;;;5055319;28;20175;-68
2022/07/18 04:13:01;;;;;;;4.77;3.03;;;;;;;;;;5037153;28;20634;-67
2022/07/18 04:15:27;;;;;;;3.83;2.73;;;;;;;;;;5054854;28;20248;-67
2022/07/18 04:17:53;;;;;;;3.73;2.83;;;;;;;;;;5054648;28;20185;-68
2022/07/18 04:20:20;;;;;;;4.13;2.60;;;;;;;;;;5054643;28;20661;-68
2022/07/18 04:22:47;;;;;;;8.77;3.07;;;;;;;;;;5054527;28;20210;-68
2022/07/18 04:25:13;;;;;;;5.33;2.60;;;;;;;;;;5054574;28;20186;-69
2022/07/18 04:27:39;;;;;;;3.87;2.57;;;;;;;;;;5054528;28;20255;-68
2022/07/18 04:30:06;;;;;;;3.23;2.87;;;;;;;;;;5055256;28;20171;-68
2022/07/18 04:32:32;;;;;;;5.00;2.70;;;;;;;;;;5064310;22;20230;-68
2022/07/18 04:34:58;;;;;;;3.80;3.00;;;;;;;;;;5034445;28;20183;-68
2022/07/18 04:37:24;;;;;;;4.40;2.80;;;;;;;;;;5034485;28;20666;-70
2022/07/18 04:39:50;;;;;;;8.97;2.80;;;;;;;;;;5034625;28;20654;-69
2022/07/18 04:42:15;;;;;;;4.73;2.77;;;;;;;;;;5032926;28;20202;-68
2022/07/18 04:44:42;;;;;;;3.77;3.03;;;;;;;;;;5033313;28;20183;-68
2022/07/18 04:47:07;;;;;;;6.77;2.50;;;;;;;;;;5034035;28;20185;-68
2022/07/18 04:49:33;;;;;;;6.83;3.23;;;;;;;;;;5034144;28;20258;-68
2022/07/18 04:51:59;;;;;;;9.97;3.53;;;;;;;;;;5034290;28;20199;-68
2022/07/18 04:54:25;;;;;;;7.60;2.70;;;;;;;;;;5016213;28;20233;-68
2022/07/18 04:56:51;;;;;;;5.50;2.40;;;;;;;;;;5033960;28;20183;-68
2022/07/18 04:59:17;;;;;;;9.10;3.07;;;;;;;;;;5034038;28;20179;-68
2022/07/18 05:01:43;;;;;;;10.33;2.77;;;;;;;;;;5016190;28;20183;-68
2022/07/18 05:04:09;;;;;;;9.60;3.13;;;;;;;;;;5016169;28;20190;-68
2022/07/18 05:06:35;;;;;;;7.10;3.20;;;;;;;;;;5033827;28;20218;-68
2022/07/18 05:09:01;;;;;;;4.13;2.43;;;;;;;;;;5033980;28;20198;-68
2022/07/18 05:11:27;;;;;;;6.43;2.70;;;;;;;;;;5015970;28;20182;-68
2022/07/18 05:13:53;;;;;;;7.37;2.67;;;;;;;;;;5016267;28;20270;-68
2022/07/18 05:16:19;;;;;;;10.03;2.83;;;;;;;;;;5015901;28;20186;-68
2022/07/18 05:18:45;;;;;;;4.20;2.70;;;;;;;;;;5015838;28;20194;-68
2022/07/18 05:21:10;;;;;;;6.87;2.60;;;;;;;;;;5034192;28;20628;-69
2022/07/18 05:23:37;;;;;;;6.03;3.40;;;;;;;;;;5033378;28;20294;-69
2022/07/18 05:26:02;;;;;;;3.57;2.17;;;;;;;;;;5033595;28;20199;-68
2022/07/18 05:28:28;;;;;;;6.50;2.57;;;;;;;;;;5033658;28;20551;-69
2022/07/18 05:30:54;;;;;;;3.80;2.27;;;;;;;;;;5033425;28;20553;-69
2022/07/18 05:33:20;;;;;;;6.23;2.17;;;;;;;;;;5015554;28;20221;-69
2022/07/18 05:35:46;;;;;;;3.53;2.03;;;;;;;;;;5033640;28;20250;-69
2022/07/18 05:38:12;;;;;;;2.60;1.93;;;;;;;;;;5015649;28;20206;-69
2022/07/18 05:40:38;;;;;;;2.93;1.80;;;;;;;;;;5033247;28;20182;-69
2022/07/18 05:43:04;;;;;;;4.00;1.80;;;;;;;;;;5015381;28;20207;-69
2022/07/18 05:45:30;;;;;;;10.13;1.83;;;;;;;;;;5033584;28;20278;-69
2022/07/18 05:47:56;;;;;;;4.13;2.07;;;;;;;;;;5033312;28;20202;-69
2022/07/18 05:50:23;;;;;;;4.83;2.07;;;;;;;;;;5033996;28;20643;-69
2022/07/18 05:52:49;;;;;;;4.90;2.03;;;;;;;;;;5033358;28;20191;-68
2022/07/18 05:55:15;;;;;;;6.73;1.87;;;;;;;;;;5015266;28;20305;-69
2022/07/18 05:57:41;;;;;;;3.53;1.70;;;;;;;;;;5015248;28;20182;-68
2022/07/18 06:00:09;;;;;;;4.77;1.90;;;;;;;;;;5032989;28;20179;-69
2022/07/18 06:02:35;;;;;;;8.13;2.07;;;;;;;;;;5032947;28;20203;-69
2022/07/18 06:05:01;;;;;;;10.17;1.80;;;;;;;;;;5032970;28;20175;-69
2022/07/18 06:07:27;;;;;;;3.23;1.80;;;;;;;;;;5015136;28;20651;-69
2022/07/18 06:09:53;;;;;;;2.10;1.60;;;;;;;;;;5032986;28;20236;-69
2022/07/18 06:12:19;;;;;;;7.53;2.37;;;;;;;;;;5015181;28;20203;-68
2022/07/18 06:14:45;;;;;;;5.10;1.93;;;;;;;;;;5033463;28;20222;-69
2022/07/18 06:17:11;;;;;;;4.83;1.70;;;;;;;;;;5033173;28;20179;-69
2022/07/18 06:19:36;;;;;;;2.77;1.40;;;;;;;;;;5032837;28;20179;-68
2022/07/18 06:22:03;;;;;;;1.57;1.47;;;;;;;;;;5032802;28;20199;-69
2022/07/18 06:24:28;;;;;;;2.63;1.80;;;;;;;;;;5033163;28;20245;-68
2022/07/18 06:26:55;;;;;;;3.30;1.60;;;;;;;;;;5032838;28;20643;-68
2022/07/18 06:29:21;;;;;;;2.73;1.60;;;;;;;;;;5033216;28;20202;-69
2022/07/18 06:31:47;;;;;;;3.23;2.03;;;;;;;;;;5032818;28;20195;-68
2022/07/18 06:34:12;;;;;;;4.13;2.00;;;;;;;;;;5032754;28;20168;-69
2022/07/18 06:36:38;;;;;;;3.20;1.60;;;;;;;;;;5032530;28;20184;-69
2022/07/18 06:39:10;;;;;;;3.57;1.70;;;;;;;;;;5014874;28;20194;-69
2022/07/18 06:41:36;;;;;;;2.47;1.77;;;;;;;;;;5033151;28;20195;-68
2022/07/18 06:44:02;;;;;;;6.03;1.83;;;;;;;;;;5032595;28;20254;-68
2022/07/18 06:46:28;;;;;;;8.03;2.00;;;;;;;;;;5014779;28;20286;-69
2022/07/18 06:48:54;;;;;;;3.87;1.87;;;;;;;;;;5032580;28;20199;-69
2022/07/18 06:51:20;;;;;;;6.17;2.07;;;;;;;;;;5032535;28;20206;-68
2022/07/18 06:53:47;;;;;;;2.57;1.60;;;;;;;;;;5032957;28;20249;-69
2022/07/18 06:56:13;;;;;;;3.50;1.97;;;;;;;;;;5032433;28;20172;-69
2022/07/18 06:58:39;;;;;;;5.10;2.70;;;;;;;;;;5014567;28;20215;-69
2022/07/18 07:01:06;;;;;;;2.07;1.67;;;;;;;;;;5014355;28;20191;-69
2022/07/18 07:03:32;;;;;;;3.73;2.10;;;;;;;;;;5032064;28;20195;-69
2022/07/18 07:05:58;;;;;;;3.80;1.80;;;;;;;;;;5032104;28;20187;-69
2022/07/18 07:08:24;;;;;;;6.93;3.20;;;;;;;;;;5015932;28;20671;-69
2022/07/18 07:10:50;;;;;;;4.30;1.70;;;;;;;;;;5035869;28;20183;-68
2022/07/18 07:13:16;;;;;;;2.53;1.80;;;;;;;;;;5017671;28;20288;-68
2022/07/18 07:15:42;;;;;;;3.63;1.97;;;;;;;;;;5035500;28;20171;-68
2022/07/18 07:18:09;;;;;;;5.17;2.23;;;;;;;;;;5035492;28;20309;-68
2022/07/18 07:20:35;;;;;;;4.90;2.03;;;;;;;;;;5035510;28;20356;-68
2022/07/18 07:23:06;;;;;;;3.33;2.00;;;;;;;;;;5035351;28;20296;-69
2022/07/18 07:25:32;;;;;;;6.07;1.87;;;;;;;;;;5035645;28;20173;-69
2022/07/18 07:27:58;;;;;;;6.67;2.20;;;;;;;;;;5035524;28;20561;-69
2022/07/18 07:30:25;;;;;;;4.60;2.30;;;;;;;;;;5035320;28;20175;-70
2022/07/18 07:32:51;;;;;;;4.93;2.67;;;;;;;;;;5017088;28;20219;-69
2022/07/18 07:35:17;;;;;;;3.03;2.37;;;;;;;;;;5017373;28;20183;-69
2022/07/18 07:37:48;;;;;;;7.33;2.60;;;;;;;;;;5035135;28;20179;-69
2022/07/18 07:40:15;;;;;;;4.03;2.50;;;;;;;;;;5035488;28;20168;-69
2022/07/18 07:42:41;;;;;;;8.43;2.80;;;;;;;;;;5017116;28;20646;-69
2022/07/18 07:45:07;;;;;;;6.77;3.40;;;;;;;;;;5035142;28;20176;-69
2022/07/18 07:47:34;;;;;;;6.97;3.50;;;;;;;;;;5034713;28;20230;-69
2022/07/18 07:50:00;;;;;;;7.40;4.30;;;;;;;;;;5035010;28;20171;-69
2022/07/18 07:52:28;;;;;;;7.83;4.60;;;;;;;;;;5017018;28;20241;-68
2022/07/18 07:54:54;;;;;;;13.60;6.47;;;;;;;;;;5034726;28;20168;-69
2022/07/18 07:57:19;;;;;;;7.50;5.03;;;;;;;;;;5034567;28;20175;-69
2022/07/18 07:59:45;;;;;;;13.90;7.10;;;;;;;;;;5016765;28;20187;-69
2022/07/18 08:02:11;;;;;;;10.80;5.93;;;;;;;;;;5016883;28;20191;-69
2022/07/18 08:04:37;;;;;;;9.70;5.43;;;;;;;;;;5034542;28;20183;-69
2022/07/18 08:07:04;;;;;;;10.93;4.93;;;;;;;;;;5034434;28;20183;-69
2022/07/18 08:09:30;;;;;;;8.07;3.67;;;;;;;;;;5034595;28;20241;-69
2022/07/18 08:11:56;;;;;;;8.97;3.80;;;;;;;;;;5034424;28;20242;-69
2022/07/18 08:14:22;;;;;;;4.73;3.20;;;;;;;;;;5034622;28;20175;-69
2022/07/18 08:16:47;;;;;;;3.30;2.80;;;;;;;;;;5034527;28;20179;-69
2022/07/18 08:19:13;;;;;;;9.40;3.47;;;;;;;;;;5034400;28;20175;-69
2022/07/18 08:21:39;;;;;;;6.17;3.53;;;;;;;;;;5034417;28;20172;-68
2022/07/18 08:24:06;;;;;;;6.10;3.23;;;;;;;;;;5034829;28;20175;-69
2022/07/18 08:26:33;;;;;;;5.13;3.40;;;;;;;;;;5034353;28;20228;-68
2022/07/18 08:28:59;;;;;;;10.27;3.40;;;;;;;;;;5034310;28;20195;-69
2022/07/18 08:31:25;;;;;;;7.93;3.50;;;;;;;;;;5034829;28;20179;-69
2022/07/18 08:33:51;;;;;;;9.20;3.77;;;;;;;;;;5016339;28;20211;-69
2022/07/18 08:36:20;;;;;;;7.57;3.73;;;;;;;;;;5034252;28;20182;-69
2022/07/18 08:38:45;;;;;;;5.00;3.87;;;;;;;;;;5016425;28;20189;-69
2022/07/18 08:41:12;;;;;;;10.90;3.03;;;;;;;;;;5034111;28;20179;-68
2022/07/18 08:43:38;;;;;;;8.90;4.17;;;;;;;;;;5016218;28;20678;-68
2022/07/18 08:46:05;;;;;;;14.97;6.37;;;;;;;;;;5033991;28;20183;-69
2022/07/18 08:48:31;;;;;;;15.57;8.50;;;;;;;;;;5016200;28;20211;-68
2022/07/18 08:50:59;;;;;;;23.00;9.10;;;;;;;;;;5034234;28;20582;-68
2022/07/18 08:53:25;;;;;;;13.13;6.70;;;;;;;;;;5034052;28;20191;-68
2022/07/18 08:55:51;;;;;;;14.37;5.70;;;;;;;;;;5034294;28;20766;-68
2022/07/18 08:58:17;;;;;;;12.43;4.93;;;;;;;;;;5033878;28;20179;-68
2022/07/18 09:00:44;;;;;;;6.40;2.77;;;;;;;;;;5016304;28;20278;-68
2022/07/18 09:03:10;;;;;;;14.20;2.87;;;;;;;;;;5034142;28;20278;-68
2022/07/18 09:05:37;;;;;;;3.10;2.47;;;;;;;;;;5034025;28;20191;-68
2022/07/18 09:08:12;;;;;;;3.73;2.47;;;;;;;;;;5016006;28;20264;-68
2022/07/18 09:10:49;;;;;;;3.87;2.13;;;;;;;;;;5016077;28;20179;-68
2022/07/18 09:13:15;;;;;;;4.37;2.00;;;;;;;;;;5033584;28;20195;-68
2022/07/18 09:16:17;;;;;;;5.03;2.47;;;;;;;;;;5033899;28;20175;-69
2022/07/18 09:18:47;;;;;;;7.90;2.90;;;;;;;;;;4973062;28;20614;-68
2022/07/18 09:21:18;;;;;;;6.93;2.57;;;;;;;;;;5005836;28;20205;-68
2022/07/18 09:23:45;;;;;;;7.63;2.40;;;;;;;;;;5033513;28;20582;-68
2022/07/18 09:26:11;;;;;;;7.50;2.33;;;;;;;;;;5033490;28;20175;-68
2022/07/18 09:28:46;;;;;;;4.77;2.20;;;;;;;;;;5033410;28;20321;-68
2022/07/18 09:31:24;;;;;;;7.93;2.10;;;;;;;;;;5033267;28;20162;-68
2022/07/18 09:33:53;;;;;;;4.27;2.20;;;;;;;;;;5033145;28;20198;-68
2022/07/18 09:36:19;;;;;;;6.77;2.60;;;;;;;;;;5033236;28;20175;-68
2022/07/18 09:38:45;;;;;;;3.70;2.30;;;;;;;;;;5033776;28;20261;-68
2022/07/18 09:41:11;;;;;;;2.87;2.20;;;;;;;;;;5033445;28;20241;-68
2022/07/18 09:43:38;;;;;;;6.47;2.50;;;;;;;;;;5015414;28;20211;-68
2022/07/18 09:46:05;;;;;;;5.67;2.53;;;;;;;;;;5033223;28;20182;-68
2022/07/18 09:48:31;;;;;;;5.33;2.53;;;;;;;;;;5015453;28;20247;-68
2022/07/18 09:50:58;;;;;;;2.93;2.17;;;;;;;;;;5015537;28;20178;-68
2022/07/18 09:53:27;;;;;;;7.87;2.27;;;;;;;;;;5033126;28;20197;-68
2022/07/18 09:55:55;;;;;;;5.00;2.40;;;;;;;;;;5033374;28;20258;-68
2022/07/18 09:58:26;;;;;;;3.97;2.50;;;;;;;;;;5033459;28;20179;-68
2022/07/18 10:00:53;;;;;;;3.83;2.00;;;;;;;;;;5015852;28;20214;-68
2022/07/18 10:03:20;;;;;;;2.33;2.07;;;;;;;;;;5033215;28;20198;-68
2022/07/18 10:05:47;;;;;;;2.67;2.20;;;;;;;;;;5032911;28;20532;-68
2022/07/18 10:08:14;;;;;;;3.03;1.97;;;;;;;;;;5015161;28;20673;-68
2022/07/18 10:10:41;;;;;;;3.90;2.20;;;;;;;;;;5033430;28;20214;-67
2022/07/18 10:13:08;;;;;;;5.60;2.17;;;;;;;;;;5032834;28;20199;-68
2022/07/18 10:15:41;;;;;;;4.40;2.03;;;;;;;;;;5033464;28;20181;-68
2022/07/18 10:18:08;;;;;;;3.37;1.93;;;;;;;;;;5033270;28;20211;-68
2022/07/18 10:20:36;;;;;;;3.80;2.20;;;;;;;;;;5033060;28;20183;-68
2022/07/18 10:23:14;;;;;;;5.07;1.93;;;;;;;;;;5032692;28;20242;-67
2022/07/18 10:25:40;;;;;;;2.20;2.00;;;;;;;;;;5033049;28;20223;-67
2022/07/18 10:28:08;;;;;;;2.50;2.10;;;;;;;;;;5032756;28;20233;-67
2022/07/18 10:30:35;;;;;;;2.43;1.80;;;;;;;;;;5032773;28;20225;-68
2022/07/18 10:33:01;;;;;;;3.33;1.90;;;;;;;;;;5032452;28;20257;-67
2022/07/18 10:35:46;;;;;;;2.23;1.80;;;;;;;;;;5032935;28;20179;-67
2022/07/18 10:38:22;;;;;;;2.53;1.97;;;;;;;;;;5032483;28;20262;-67
2022/07/18 10:41:06;;;;;;;2.67;1.50;;;;;;;;;;5032406;28;20643;-66
2022/07/18 10:43:34;;;;;;;2.10;1.90;;;;;;;;;;5034408;28;20675;-66
2022/07/18 10:46:00;;;;;;;3.20;1.75;;;;;;;;;;5036361;28;20185;-67
2022/07/18 10:48:32;;;;;;;3.38;2.00;;;;;;;;;;5036272;28;20213;-67
2022/07/18 10:51:12;;;;;;;12.17;10.80;;;;;;;;;;5036244;28;20179;-66
2022/07/18 10:53:57;;;;;;;3.00;1.92;;;;;;;;;;5036444;28;20198;-67
2022/07/18 10:56:46;;;;;;;2.25;1.83;;;;;;;;;;5036240;28;20179;-67
2022/07/18 10:59:19;;;;;;;3.08;1.67;;;;;;;;;;5036356;28;20180;-67
2022/07/18 11:01:49;;;;;;;2.70;2.30;;;;;;;;;;5018807;28;20183;-67
2022/07/18 11:04:27;;;;;;;5.32;1.90;;;;;;;;;;5036018;28;20617;-67
2022/07/18 11:07:02;;;;;;;3.42;2.10;;;;;;;;;;5018240;28;20647;-68
2022/07/18 11:09:32;;;;;;;2.40;1.80;;;;;;;;;;5036122;28;20560;-67
2022/07/18 11:12:16;;;;;;;2.95;2.00;;;;;;;;;;5035867;28;20187;-67
2022/07/18 11:15:00;;;;;;;1.92;1.70;;;;;;;;;;5035968;28;20267;-67
2022/07/18 11:17:45;;;;;;;3.95;2.10;;;;;;;;;;5035976;28;20562;-67
2022/07/18 11:20:35;;;;;;;4.82;2.22;;;;;;;;;;5035690;28;20183;-67
2022/07/18 11:23:02;;;;;;;2.10;1.90;;;;;;;;;;5028015;28;20222;-67
2022/07/18 11:25:29;;;;;;;2.83;2.05;;;;;;;;;;5035642;28;20175;-67
2022/07/18 11:27:55;;;;;;;2.50;2.00;;;;;;;;;;5035506;28;20655;-67
2022/07/18 11:30:22;;;;;;;2.45;1.88;;;;;;;;;;5036199;28;20167;-67
2022/07/18 11:32:48;;;;;;;3.08;2.05;;;;;;;;;;5018688;28;20217;-67
2022/07/18 11:35:14;;;;;;;3.80;2.30;;;;;;;;;;5037352;28;20175;-67
2022/07/18 11:37:48;;;;;;;2.22;2.03;;;;;;;;;;5036864;28;20179;-67
2022/07/18 11:40:14;;;;;;;3.15;2.10;;;;;;;;;;5018359;28;20555;-67
2022/07/18 11:42:41;;;;;;;2.40;2.20;;;;;;;;;;5017699;28;20677;-67
2022/07/18 11:45:08;;;;;;;3.17;2.05;;;;;;;;;;5070122;22;20233;-71
2022/07/18 11:47:45;;;;;;;3.88;2.15;;;;;;;;;;5055311;28;20631;-71
2022/07/18 11:50:11;;;;;;;3.55;1.98;;;;;;;;;;5055428;28;20166;-71
2022/07/18 11:52:37;;;;;;;4.00;2.00;;;;;;;;;;5055636;28;20174;-71
2022/07/18 11:55:04;;;;;;;2.10;1.90;;;;;;;;;;5054932;28;20194;-71
2022/07/18 11:57:30;;;;;;;6.00;2.30;;;;;;;;;;5055618;28;20194;-72
2022/07/18 11:59:57;;;;;;;2.95;2.08;;;;;;;;;;5055106;28;20174;-71
2022/07/18 12:02:23;;;;;;;3.08;2.20;;;;;;;;;;5055047;28;20256;-72
2022/07/18 12:04:49;;;;;;;3.08;1.88;;;;;;;;;;5037216;28;20202;-71
2022/07/18 12:07:23;;;;;;;2.35;1.90;;;;;;;;;;5037221;28;20668;-70
2022/07/18 12:09:50;;;;;;;2.58;2.00;;;;;;;;;;5055254;28;20182;-71
2022/07/18 12:12:17;;;;;;;3.95;2.20;;;;;;;;;;5037082;28;20204;-71
2022/07/18 12:14:43;;;;;;;3.83;2.15;;;;;;;;;;5055215;28;20590;-71
2022/07/18 12:17:09;;;;;;;3.78;2.17;;;;;;;;;;5036851;28;20201;-71
2022/07/18 12:19:39;;;;;;;2.70;1.90;;;;;;;;;;5036918;28;20193;-71
2022/07/18 12:22:12;;;;;;;7.57;2.25;;;;;;;;;;5054776;28;20178;-71
2022/07/18 12:25:00;;;;;;;3.55;2.03;;;;;;;;;;5036689;28;20199;-71
2022/07/18 12:27:32;;;;;;;2.75;2.30;;;;;;;;;;5054917;28;20159;-71
2022/07/18 12:30:04;;;;;;;2.53;2.20;;;;;;;;;;5036827;28;20638;-72
2022/07/18 12:32:39;;;;;;;5.07;2.33;;;;;;;;;;5055295;28;20182;-71
2022/07/18 12:35:06;;;;;;;3.38;2.13;;;;;;;;;;5037000;28;20233;-71
2022/07/18 12:37:32;;;;;;;2.97;2.22;;;;;;;;;;5054331;28;20174;-71
2022/07/18 12:39:59;;;;;;;4.68;2.53;;;;;;;;;;5054324;28;20257;-70
2022/07/18 12:42:29;;;;;;;4.38;2.40;;;;;;;;;;5054237;28;20170;-71
2022/07/18 12:44:55;;;;;;;4.18;2.50;;;;;;;;;;5054027;28;20245;-70
2022/07/18 12:47:21;;;;;;;3.30;2.30;;;;;;;;;;5054415;28;20178;-71
2022/07/18 12:49:47;;;;;;;5.53;2.20;;;;;;;;;;5036097;28;20593;-71
2022/07/18 12:52:13;;;;;;;6.18;2.30;;;;;;;;;;5054412;28;20181;-70
2022/07/18 12:54:39;;;;;;;3.47;2.28;;;;;;;;;;5036031;28;20190;-71
2022/07/18 12:57:05;;;;;;;2.75;2.40;;;;;;;;;;5053990;28;20174;-71
2022/07/18 12:59:30;;;;;;;5.80;2.65;;;;;;;;;;5054113;28;20182;-71
2022/07/18 13:01:57;;;;;;;4.40;2.35;;;;;;;;;;5053800;28;20189;-70
2022/07/18 13:04:23;;;;;;;4.03;2.20;;;;;;;;;;5053768;28;20267;-71
2022/07/18 13:06:49;;;;;;;7.30;2.20;;;;;;;;;;5035598;28;20174;-71
2022/07/18 13:09:15;;;;;;;3.78;2.67;;;;;;;;;;5053842;28;20202;-70
2022/07/18 13:11:46;;;;;;;4.15;2.42;;;;;;;;;;5053598;28;20181;-70
2022/07/18 13:14:12;;;;;;;4.90;2.47;;;;;;;;;;5053704;28;20221;-70
2022/07/18 13:16:38;;;;;;;3.08;2.20;;;;;;;;;;5053821;28;20178;-70
2022/07/18 13:19:04;;;;;;;3.53;2.28;;;;;;;;;;5053562;28;20178;-70
2022/07/18 13:21:30;;;;;;;2.45;2.00;;;;;;;;;;5053788;28;20178;-71
2022/07/18 13:23:56;;;;;;;3.65;2.42;;;;;;;;;;5053688;28;20174;-70
2022/07/18 13:26:22;;;;;;;2.53;2.33;;;;;;;;;;5053576;28;20182;-70
2022/07/18 13:28:47;;;;;;;2.53;2.20;;;;;;;;;;5053182;28;20205;-69
2022/07/18 13:31:13;;;;;;;2.78;2.20;;;;;;;;;;5053377;28;20253;-69
2022/07/18 13:33:39;;;;;;;4.38;2.53;;;;;;;;;;5035358;28;20214;-70
2022/07/18 13:36:05;;;;;;;8.95;2.33;;;;;;;;;;5053190;28;20195;-70
2022/07/18 13:38:31;;;;;;;6.60;2.40;;;;;;;;;;5053340;28;20174;-71
2022/07/18 13:40:57;;;;;;;3.92;2.95;;;;;;;;;;5053264;28;20184;-70
2022/07/18 13:43:23;;;;;;;4.75;2.42;;;;;;;;;;5053206;28;20210;-71
2022/07/18 13:45:49;;;;;;;4.25;2.70;;;;;;;;;;5053042;28;20221;-70
2022/07/18 13:48:15;;;;;;;3.67;2.42;;;;;;;;;;5053438;28;20207;-71
2022/07/18 13:50:41;;;;;;;3.67;2.50;;;;;;;;;;5035224;28;20182;-70
2022/07/18 13:53:08;;;;;;;4.22;2.80;;;;;;;;;;5052846;28;20166;-70
2022/07/18 13:55:34;;;;;;;8.60;3.00;;;;;;;;;;5035083;28;20194;-71
2022/07/18 13:58:00;;;;;;;4.15;3.03;;;;;;;;;;5052985;28;20216;-70
2022/07/18 14:00:26;;;;;;;3.92;2.45;;;;;;;;;;5053103;28;20179;-70
2022/07/18 14:02:51;;;;;;;3.85;2.15;;;;;;;;;;5052992;28;20238;-70
2022/07/18 14:05:17;;;;;;;5.25;2.40;;;;;;;;;;5052950;28;20198;-70
2022/07/18 14:07:44;;;;;;;3.50;2.50;;;;;;;;;;5052954;28;20681;-70
2022/07/18 14:10:10;;;;;;;4.80;2.30;;;;;;;;;;5034853;28;20185;-70
2022/07/18 14:12:36;;;;;;;2.92;2.40;;;;;;;;;;5035031;28;20189;-70
2022/07/18 14:15:02;;;;;;;3.17;2.50;;;;;;;;;;5034868;28;20186;-70
2022/07/18 14:17:30;;;;;;;3.15;2.53;;;;;;;;;;5054791;28;20261;-71
2022/07/18 14:19:56;;;;;;;10.70;2.90;;;;;;;;;;5057344;28;20253;-70
2022/07/18 14:22:22;;;;;;;7.70;2.90;;;;;;;;;;5038867;28;20221;-70
2022/07/18 14:24:48;;;;;;;2.40;2.20;;;;;;;;;;5056579;28;20194;-70
2022/07/18 14:27:14;;;;;;;2.50;2.30;;;;;;;;;;5038799;28;20209;-70
2022/07/18 14:29:40;;;;;;;2.95;2.58;;;;;;;;;;5057132;28;20251;-70
2022/07/18 14:32:06;;;;;;;5.38;2.63;;;;;;;;;;5056711;28;20166;-70
2022/07/18 14:34:33;;;;;;;2.95;2.40;;;;;;;;;;5056570;28;20198;-70
2022/07/18 14:36:59;;;;;;;5.65;2.47;;;;;;;;;;5056650;28;20194;-70
2022/07/18 14:39:25;;;;;;;3.55;2.40;;;;;;;;;;5056704;28;20553;-70
2022/07/18 14:41:51;;;;;;;2.90;2.40;;;;;;;;;;5056638;28;20643;-71
2022/07/18 14:44:17;;;;;;;2.60;2.38;;;;;;;;;;5038519;28;20690;-70